sensor_id;sensor_type;location;lat;lon;timestamp;pressure;altitude;pressure_sealevel;temperature;humidity
49342;BME280;35210;41.606;-87.602;2023-07-31T00:01:05;99769.44;;;26.49;51.57
49342;BME280;35210;41.606;-87.602;2023-07-31T00:03:33;99771.53;;;26.47;52.48
49342;BME280;35210;41.606;-87.602;2023-07-31T00:06:03;99772.97;;;26.49;52.12
49342;BME280;35210;41.606;-87.602;2023-07-31T00:08:31;99778.38;;;26.49;52.34
49342;BME280;35210;41.606;-87.602;2023-07-31T00:11:00;99773.81;;;26.50;52.63
49342;BME280;35210;41.606;-87.602;2023-07-31T00:13:28;99770.88;;;26.58;52.41
49342;BME280;35210;41.606;-87.602;2023-07-31T00:15:56;99770.03;;;26.58;52.08
49342;BME280;35210;41.606;-87.602;2023-07-31T00:18:25;99758.56;;;26.62;52.11
49342;BME280;35210;41.606;-87.602;2023-07-31T00:20:53;99761.66;;;26.66;51.77
49342;BME280;35210;41.606;-87.602;2023-07-31T00:23:23;99766.25;;;26.65;51.79
49342;BME280;35210;41.606;-87.602;2023-07-31T00:25:51;99764.59;;;26.64;51.62
49342;BME280;35210;41.606;-87.602;2023-07-31T00:28:19;99765.03;;;26.61;52.20
49342;BME280;35210;41.606;-87.602;2023-07-31T00:30:47;99767.91;;;26.66;47.98
49342;BME280;35210;41.606;-87.602;2023-07-31T00:33:15;99763.34;;;26.60;47.47
49342;BME280;35210;41.606;-87.602;2023-07-31T00:35:44;99766.72;;;26.56;47.23
49342;BME280;35210;41.606;-87.602;2023-07-31T00:38:12;99760.25;;;26.57;46.62
49342;BME280;35210;41.606;-87.602;2023-07-31T00:40:41;99764.84;;;26.56;46.89
49342;BME280;35210;41.606;-87.602;2023-07-31T00:43:10;99762.53;;;26.60;45.12
49342;BME280;35210;41.606;-87.602;2023-07-31T00:45:38;99762.31;;;26.61;42.93
49342;BME280;35210;41.606;-87.602;2023-07-31T00:48:07;99756.72;;;26.56;42.24
49342;BME280;35210;41.606;-87.602;2023-07-31T00:50:35;99761.31;;;26.49;43.01
49342;BME280;35210;41.606;-87.602;2023-07-31T00:53:03;99757.78;;;26.42;44.12
49342;BME280;35210;41.606;-87.602;2023-07-31T00:55:32;99764.25;;;26.41;43.52
49342;BME280;35210;41.606;-87.602;2023-07-31T00:58:02;99755.50;;;26.39;44.29
49342;BME280;35210;41.606;-87.602;2023-07-31T01:00:30;99757.41;;;26.32;44.95
49342;BME280;35210;41.606;-87.602;2023-07-31T01:02:59;99755.91;;;26.29;44.91
49342;BME280;35210;41.606;-87.602;2023-07-31T01:05:36;99761.31;;;26.29;45.21
49342;BME280;35210;41.606;-87.602;2023-07-31T01:08:15;99768.81;;;26.27;45.62
49342;BME280;35210;41.606;-87.602;2023-07-31T01:10:50;99759.66;;;26.28;46.44
49342;BME280;35210;41.606;-87.602;2023-07-31T01:13:21;99768.63;;;26.29;47.00
49342;BME280;35210;41.606;-87.602;2023-07-31T01:15:49;99773.00;;;26.30;47.50
49342;BME280;35210;41.606;-87.602;2023-07-31T01:18:19;99775.09;;;26.34;48.56
49342;BME280;35210;41.606;-87.602;2023-07-31T01:20:54;99778.41;;;26.30;49.22
49342;BME280;35210;41.606;-87.602;2023-07-31T01:23:56;99785.91;;;26.28;49.99
49342;BME280;35210;41.606;-87.602;2023-07-31T01:26:34;99780.06;;;26.24;50.28
49342;BME280;35210;41.606;-87.602;2023-07-31T01:29:09;99780.91;;;26.25;50.46
49342;BME280;35210;41.606;-87.602;2023-07-31T01:31:40;99775.91;;;26.22;50.36
49342;BME280;35210;41.606;-87.602;2023-07-31T01:34:10;99779.03;;;26.18;50.65
49342;BME280;35210;41.606;-87.602;2023-07-31T01:36:41;99782.19;;;26.15;51.01
49342;BME280;35210;41.606;-87.602;2023-07-31T01:39:09;99785.31;;;26.12;51.33
49342;BME280;35210;41.606;-87.602;2023-07-31T01:41:39;99792.59;;;26.12;51.52
49342;BME280;35210;41.606;-87.602;2023-07-31T01:44:07;99792.78;;;26.10;51.48
49342;BME280;35210;41.606;-87.602;2023-07-31T01:46:35;99791.97;;;26.10;51.71
49342;BME280;35210;41.606;-87.602;2023-07-31T01:49:05;99785.09;;;26.07;52.00
49342;BME280;35210;41.606;-87.602;2023-07-31T01:51:33;99789.06;;;26.05;52.29
49342;BME280;35210;41.606;-87.602;2023-07-31T01:54:03;99779.69;;;26.01;52.64
49342;BME280;35210;41.606;-87.602;2023-07-31T01:56:31;99786.38;;;25.98;53.03
49342;BME280;35210;41.606;-87.602;2023-07-31T01:59:01;99799.69;;;25.93;53.58
49342;BME280;35210;41.606;-87.602;2023-07-31T02:01:32;99801.78;;;25.91;53.86
49342;BME280;35210;41.606;-87.602;2023-07-31T02:04:00;99804.28;;;25.86;54.37
49342;BME280;35210;41.606;-87.602;2023-07-31T02:06:28;99798.44;;;25.82;54.23
49342;BME280;35210;41.606;-87.602;2023-07-31T02:08:58;99800.31;;;25.82;54.53
49342;BME280;35210;41.606;-87.602;2023-07-31T02:11:26;99807.19;;;25.78;54.65
49342;BME280;35210;41.606;-87.602;2023-07-31T02:13:54;99804.28;;;25.73;54.81
49342;BME280;35210;41.606;-87.602;2023-07-31T02:16:24;99796.78;;;25.68;55.47
49342;BME280;35210;41.606;-87.602;2023-07-31T02:18:52;99809.06;;;25.64;56.31
49342;BME280;35210;41.606;-87.602;2023-07-31T02:21:21;99802.78;;;25.64;56.60
49342;BME280;35210;41.606;-87.602;2023-07-31T02:23:49;99807.13;;;25.58;56.53
49342;BME280;35210;41.606;-87.602;2023-07-31T02:26:18;99802.34;;;25.53;56.44
49342;BME280;35210;41.606;-87.602;2023-07-31T02:28:46;99795.69;;;25.49;56.89
49342;BME280;35210;41.606;-87.602;2023-07-31T02:31:14;99795.47;;;25.44;57.34
49342;BME280;35210;41.606;-87.602;2023-07-31T02:33:44;99799.00;;;25.38;57.54
49342;BME280;35210;41.606;-87.602;2023-07-31T02:36:12;99802.50;;;25.32;57.66
49342;BME280;35210;41.606;-87.602;2023-07-31T02:38:41;99798.56;;;25.28;57.95
49342;BME280;35210;41.606;-87.602;2023-07-31T02:41:09;99796.06;;;25.27;58.38
49342;BME280;35210;41.606;-87.602;2023-07-31T02:43:37;99794.63;;;25.24;58.11
49342;BME280;35210;41.606;-87.602;2023-07-31T02:46:06;99804.81;;;25.22;58.29
49342;BME280;35210;41.606;-87.602;2023-07-31T02:48:35;99807.06;;;25.18;58.28
49342;BME280;35210;41.606;-87.602;2023-07-31T02:51:07;99803.94;;;25.15;58.46
49342;BME280;35210;41.606;-87.602;2023-07-31T02:53:35;99801.66;;;25.12;58.63
49342;BME280;35210;41.606;-87.602;2023-07-31T02:56:05;99803.09;;;25.08;59.18
49342;BME280;35210;41.606;-87.602;2023-07-31T02:58:35;99799.97;;;25.04;59.34
49342;BME280;35210;41.606;-87.602;2023-07-31T03:01:04;99801.19;;;25.02;59.55
49342;BME280;35210;41.606;-87.602;2023-07-31T03:03:35;99797.44;;;24.96;59.89
49342;BME280;35210;41.606;-87.602;2023-07-31T03:06:05;99791.56;;;24.93;60.20
49342;BME280;35210;41.606;-87.602;2023-07-31T03:08:34;99786.38;;;24.91;60.50
49342;BME280;35210;41.606;-87.602;2023-07-31T03:11:04;99771.81;;;24.85;61.09
49342;BME280;35210;41.606;-87.602;2023-07-31T03:13:32;99771.56;;;24.80;61.38
49342;BME280;35210;41.606;-87.602;2023-07-31T03:16:01;99770.31;;;24.76;61.06
49342;BME280;35210;41.606;-87.602;2023-07-31T03:18:29;99771.53;;;24.74;61.37
49342;BME280;35210;41.606;-87.602;2023-07-31T03:20:57;99769.44;;;24.69;61.72
49342;BME280;35210;41.606;-87.602;2023-07-31T03:23:28;99774.84;;;24.69;61.59
49342;BME280;35210;41.606;-87.602;2023-07-31T03:25:59;99784.19;;;24.67;61.50
49342;BME280;35210;41.606;-87.602;2023-07-31T03:28:29;99790.81;;;24.64;61.84
49342;BME280;35210;41.606;-87.602;2023-07-31T03:30:57;99790.19;;;24.62;62.71
49342;BME280;35210;41.606;-87.602;2023-07-31T03:33:25;99787.66;;;24.54;63.92
49342;BME280;35210;41.606;-87.602;2023-07-31T03:35:54;99781.00;;;24.50;64.70
49342;BME280;35210;41.606;-87.602;2023-07-31T03:38:22;99771.59;;;24.39;66.42
49342;BME280;35210;41.606;-87.602;2023-07-31T03:40:52;99774.47;;;24.31;66.59
49342;BME280;35210;41.606;-87.602;2023-07-31T03:43:20;99775.06;;;24.27;66.18
49342;BME280;35210;41.606;-87.602;2023-07-31T03:45:48;99775.81;;;24.20;66.46
49342;BME280;35210;41.606;-87.602;2023-07-31T03:48:16;99773.06;;;24.14;65.82
49342;BME280;35210;41.606;-87.602;2023-07-31T03:50:44;99778.22;;;24.09;65.64
49342;BME280;35210;41.606;-87.602;2023-07-31T03:53:13;99774.66;;;24.02;65.85
49342;BME280;35210;41.606;-87.602;2023-07-31T03:55:41;99777.72;;;23.99;66.31
49342;BME280;35210;41.606;-87.602;2023-07-31T03:58:11;99775.63;;;23.94;66.64
49342;BME280;35210;41.606;-87.602;2023-07-31T04:00:40;99783.06;;;23.92;67.05
49342;BME280;35210;41.606;-87.602;2023-07-31T04:03:08;99786.16;;;23.89;66.08
49342;BME280;35210;41.606;-87.602;2023-07-31T04:05:38;99782.19;;;23.85;65.99
49342;BME280;35210;41.606;-87.602;2023-07-31T04:08:07;99794.84;;;23.84;65.93
49342;BME280;35210;41.606;-87.602;2023-07-31T04:10:35;99780.72;;;23.82;66.27
49342;BME280;35210;41.606;-87.602;2023-07-31T04:13:03;99787.34;;;23.80;66.41
49342;BME280;35210;41.606;-87.602;2023-07-31T04:15:33;99781.31;;;23.78;66.47
49342;BME280;35210;41.606;-87.602;2023-07-31T04:18:01;99778.00;;;23.76;66.72
49342;BME280;35210;41.606;-87.602;2023-07-31T04:20:29;99776.06;;;23.70;67.06
49342;BME280;35210;41.606;-87.602;2023-07-31T04:22:57;99775.44;;;23.68;67.17
49342;BME280;35210;41.606;-87.602;2023-07-31T04:25:25;99785.59;;;23.66;67.33
49342;BME280;35210;41.606;-87.602;2023-07-31T04:27:54;99792.00;;;23.65;67.93
49342;BME280;35210;41.606;-87.602;2023-07-31T04:30:22;99788.66;;;23.63;68.72
49342;BME280;35210;41.606;-87.602;2023-07-31T04:32:51;99795.47;;;23.58;69.02
49342;BME280;35210;41.606;-87.602;2023-07-31T04:35:20;99791.50;;;23.54;68.92
49342;BME280;35210;41.606;-87.602;2023-07-31T04:37:51;99785.81;;;23.49;69.06
49342;BME280;35210;41.606;-87.602;2023-07-31T04:40:20;99802.19;;;23.48;69.07
49342;BME280;35210;41.606;-87.602;2023-07-31T04:42:48;99803.41;;;23.45;69.73
49342;BME280;35210;41.606;-87.602;2023-07-31T04:45:16;99810.00;;;23.43;69.78
49342;BME280;35210;41.606;-87.602;2023-07-31T04:47:44;99810.56;;;23.38;70.23
49342;BME280;35210;41.606;-87.602;2023-07-31T04:50:14;99799.34;;;23.35;70.57
49342;BME280;35210;41.606;-87.602;2023-07-31T04:52:42;99806.13;;;23.31;71.13
49342;BME280;35210;41.606;-87.602;2023-07-31T04:55:10;99805.69;;;23.27;71.54
49342;BME280;35210;41.606;-87.602;2023-07-31T04:57:38;99806.06;;;23.24;72.29
49342;BME280;35210;41.606;-87.602;2023-07-31T05:00:07;99802.47;;;23.17;73.31
49342;BME280;35210;41.606;-87.602;2023-07-31T05:02:36;99815.94;;;23.17;73.62
49342;BME280;35210;41.606;-87.602;2023-07-31T05:05:04;99804.88;;;23.12;74.20
49342;BME280;35210;41.606;-87.602;2023-07-31T05:07:34;99809.00;;;23.08;75.39
49342;BME280;35210;41.606;-87.602;2023-07-31T05:10:03;99806.66;;;23.05;75.98
49342;BME280;35210;41.606;-87.602;2023-07-31T05:12:31;99806.25;;;23.01;75.81
49342;BME280;35210;41.606;-87.602;2023-07-31T05:14:59;99804.94;;;22.97;75.61
49342;BME280;35210;41.606;-87.602;2023-07-31T05:17:28;99804.94;;;22.97;75.36
49342;BME280;35210;41.606;-87.602;2023-07-31T05:19:57;99798.28;;;22.93;75.20
49342;BME280;35210;41.606;-87.602;2023-07-31T05:22:25;99808.22;;;22.92;75.52
49342;BME280;35210;41.606;-87.602;2023-07-31T05:24:54;99825.41;;;22.91;75.85
49342;BME280;35210;41.606;-87.602;2023-07-31T05:27:23;99813.97;;;22.89;76.12
49342;BME280;35210;41.606;-87.602;2023-07-31T05:29:51;99826.78;;;22.87;76.46
49342;BME280;35210;41.606;-87.602;2023-07-31T05:32:19;99824.47;;;22.84;76.97
49342;BME280;35210;41.606;-87.602;2023-07-31T05:34:47;99831.72;;;22.84;77.75
49342;BME280;35210;41.606;-87.602;2023-07-31T05:37:15;99834.97;;;22.79;79.36
49342;BME280;35210;41.606;-87.602;2023-07-31T05:39:43;99843.19;;;22.78;79.04
49342;BME280;35210;41.606;-87.602;2023-07-31T05:42:13;99841.34;;;22.78;78.92
49342;BME280;35210;41.606;-87.602;2023-07-31T05:44:41;99839.66;;;22.77;79.20
49342;BME280;35210;41.606;-87.602;2023-07-31T05:47:09;99834.66;;;22.74;79.08
49342;BME280;35210;41.606;-87.602;2023-07-31T05:49:38;99826.59;;;22.74;79.61
49342;BME280;35210;41.606;-87.602;2023-07-31T05:52:07;99825.94;;;22.72;80.19
49342;BME280;35210;41.606;-87.602;2023-07-31T05:54:35;99825.19;;;22.63;81.53
49342;BME280;35210;41.606;-87.602;2023-07-31T05:57:04;99816.38;;;22.55;81.92
49342;BME280;35210;41.606;-87.602;2023-07-31T05:59:33;99816.75;;;22.52;81.99
49342;BME280;35210;41.606;-87.602;2023-07-31T06:02:02;99819.16;;;22.47;82.50
49342;BME280;35210;41.606;-87.602;2023-07-31T06:04:30;99819.53;;;22.44;82.90
49342;BME280;35210;41.606;-87.602;2023-07-31T06:06:58;99817.75;;;22.36;84.04
49342;BME280;35210;41.606;-87.602;2023-07-31T06:09:26;99817.75;;;22.36;84.02
49342;BME280;35210;41.606;-87.602;2023-07-31T06:11:54;99818.97;;;22.34;84.27
49342;BME280;35210;41.606;-87.602;2023-07-31T06:14:23;99822.03;;;22.30;84.89
49342;BME280;35210;41.606;-87.602;2023-07-31T06:16:52;99822.22;;;22.29;84.71
49342;BME280;35210;41.606;-87.602;2023-07-31T06:19:20;99821.78;;;22.25;85.26
49342;BME280;35210;41.606;-87.602;2023-07-31T06:21:48;99820.00;;;22.18;85.39
49342;BME280;35210;41.606;-87.602;2023-07-31T06:24:17;99815.44;;;22.18;84.90
49342;BME280;35210;41.606;-87.602;2023-07-31T06:26:46;99811.09;;;22.17;84.77
49342;BME280;35210;41.606;-87.602;2023-07-31T06:29:14;99812.09;;;22.16;84.88
49342;BME280;35210;41.606;-87.602;2023-07-31T06:31:43;99806.25;;;22.13;84.89
49342;BME280;35210;41.606;-87.602;2023-07-31T06:34:12;99810.81;;;22.12;85.19
49342;BME280;35210;41.606;-87.602;2023-07-31T06:36:41;99808.13;;;22.12;85.00
49342;BME280;35210;41.606;-87.602;2023-07-31T06:39:09;99802.56;;;22.14;84.86
49342;BME280;35210;41.606;-87.602;2023-07-31T06:41:38;99801.72;;;22.13;84.68
49342;BME280;35210;41.606;-87.602;2023-07-31T06:44:06;99798.38;;;22.11;84.78
49342;BME280;35210;41.606;-87.602;2023-07-31T06:46:35;99797.06;;;22.07;85.18
49342;BME280;35210;41.606;-87.602;2023-07-31T06:49:03;99800.13;;;22.04;85.43
49342;BME280;35210;41.606;-87.602;2023-07-31T06:51:35;99803.00;;;22.03;85.80
49342;BME280;35210;41.606;-87.602;2023-07-31T06:54:04;99809.53;;;22.00;86.38
49342;BME280;35210;41.606;-87.602;2023-07-31T06:56:32;99810.91;;;21.96;86.62
49342;BME280;35210;41.606;-87.602;2023-07-31T06:59:00;99810.09;;;21.95;86.46
49342;BME280;35210;41.606;-87.602;2023-07-31T07:01:29;99812.97;;;21.94;86.74
49342;BME280;35210;41.606;-87.602;2023-07-31T07:03:57;99808.31;;;21.88;86.95
49342;BME280;35210;41.606;-87.602;2023-07-31T07:06:25;99813.88;;;21.86;86.97
49342;BME280;35210;41.606;-87.602;2023-07-31T07:08:54;99820.72;;;21.89;86.69
49342;BME280;35210;41.606;-87.602;2023-07-31T07:11:22;99824.25;;;21.89;86.91
49342;BME280;35210;41.606;-87.602;2023-07-31T07:13:50;99826.09;;;21.89;87.00
49342;BME280;35210;41.606;-87.602;2023-07-31T07:16:19;99833.53;;;21.87;86.96
49342;BME280;35210;41.606;-87.602;2023-07-31T07:18:47;99821.09;;;21.86;87.38
49342;BME280;35210;41.606;-87.602;2023-07-31T07:21:15;99832.69;;;21.86;87.08
49342;BME280;35210;41.606;-87.602;2023-07-31T07:23:44;99829.16;;;21.86;87.11
49342;BME280;35210;41.606;-87.602;2023-07-31T07:26:14;99833.88;;;21.84;87.26
49342;BME280;35210;41.606;-87.602;2023-07-31T07:28:42;99833.53;;;21.87;87.02
49342;BME280;35210;41.606;-87.602;2023-07-31T07:31:10;99835.06;;;21.81;87.21
49342;BME280;35210;41.606;-87.602;2023-07-31T07:33:39;99834.25;;;21.81;87.14
49342;BME280;35210;41.606;-87.602;2023-07-31T07:36:07;99833.59;;;21.79;87.24
49342;BME280;35210;41.606;-87.602;2023-07-31T07:38:36;99833.41;;;21.80;87.38
49342;BME280;35210;41.606;-87.602;2023-07-31T07:41:05;99831.72;;;21.79;87.30
49342;BME280;35210;41.606;-87.602;2023-07-31T07:43:35;99827.56;;;21.77;87.51
49342;BME280;35210;41.606;-87.602;2023-07-31T07:46:04;99826.91;;;21.75;87.51
49342;BME280;35210;41.606;-87.602;2023-07-31T07:48:33;99829.09;;;21.71;87.34
49342;BME280;35210;41.606;-87.602;2023-07-31T07:51:02;99831.13;;;21.69;87.55
49342;BME280;35210;41.606;-87.602;2023-07-31T07:53:30;99832.34;;;21.67;87.65
49342;BME280;35210;41.606;-87.602;2023-07-31T07:55:58;99825.28;;;21.65;87.89
49342;BME280;35210;41.606;-87.602;2023-07-31T07:58:26;99828.16;;;21.64;87.90
49342;BME280;35210;41.606;-87.602;2023-07-31T08:00:56;99828.81;;;21.66;87.39
49342;BME280;35210;41.606;-87.602;2023-07-31T08:03:24;99823.63;;;21.64;87.32
49342;BME280;35210;41.606;-87.602;2023-07-31T08:05:52;99830.19;;;21.62;87.39
49342;BME280;35210;41.606;-87.602;2023-07-31T08:08:25;99836.28;;;21.56;87.89
49342;BME280;35210;41.606;-87.602;2023-07-31T08:10:54;99828.59;;;21.53;88.11
49342;BME280;35210;41.606;-87.602;2023-07-31T08:13:22;99834.50;;;21.48;88.17
49342;BME280;35210;41.606;-87.602;2023-07-31T08:15:50;99826.31;;;21.42;88.58
49342;BME280;35210;41.606;-87.602;2023-07-31T08:18:20;99828.19;;;21.41;88.75
49342;BME280;35210;41.606;-87.602;2023-07-31T08:20:48;99835.94;;;21.36;89.31
49342;BME280;35210;41.606;-87.602;2023-07-31T08:23:16;99844.00;;;21.36;89.52
49342;BME280;35210;41.606;-87.602;2023-07-31T08:25:45;99844.00;;;21.36;89.57
49342;BME280;35210;41.606;-87.602;2023-07-31T08:28:15;99849.53;;;21.35;89.46
49342;BME280;35210;41.606;-87.602;2023-07-31T08:30:44;99859.09;;;21.37;89.48
49342;BME280;35210;41.606;-87.602;2023-07-31T08:33:12;99862.63;;;21.38;89.75
49342;BME280;35210;41.606;-87.602;2023-07-31T08:35:41;99856.41;;;21.37;89.84
49342;BME280;35210;41.606;-87.602;2023-07-31T08:38:10;99861.78;;;21.37;89.93
49342;BME280;35210;41.606;-87.602;2023-07-31T08:40:38;99853.06;;;21.35;89.65
49342;BME280;35210;41.606;-87.602;2023-07-31T08:43:08;99858.63;;;21.34;89.53
49342;BME280;35210;41.606;-87.602;2023-07-31T08:45:37;99851.75;;;21.31;89.81
49342;BME280;35210;41.606;-87.602;2023-07-31T08:48:09;99862.84;;;21.28;89.64
49342;BME280;35210;41.606;-87.602;2023-07-31T08:50:38;99864.03;;;21.25;89.62
49342;BME280;35210;41.606;-87.602;2023-07-31T08:53:08;99869.75;;;21.22;89.57
49342;BME280;35210;41.606;-87.602;2023-07-31T08:55:37;99879.66;;;21.22;89.45
49342;BME280;35210;41.606;-87.602;2023-07-31T08:58:06;99884.00;;;21.23;89.08
49342;BME280;35210;41.606;-87.602;2023-07-31T09:00:34;99886.88;;;21.21;88.84
49342;BME280;35210;41.606;-87.602;2023-07-31T09:03:08;99885.88;;;21.22;88.63
49342;BME280;35210;41.606;-87.602;2023-07-31T09:05:36;99881.00;;;21.18;88.27
49342;BME280;35210;41.606;-87.602;2023-07-31T09:08:10;99897.44;;;21.15;88.35
49342;BME280;35210;41.606;-87.602;2023-07-31T09:10:41;99895.78;;;21.14;88.28
49342;BME280;35210;41.606;-87.602;2023-07-31T09:13:09;99885.06;;;21.06;88.52
49342;BME280;35210;41.606;-87.602;2023-07-31T09:15:37;99891.78;;;21.02;88.89
49342;BME280;35210;41.606;-87.602;2023-07-31T09:18:07;99898.19;;;21.00;88.96
49342;BME280;35210;41.606;-87.602;2023-07-31T09:20:36;99899.84;;;21.02;88.81
49342;BME280;35210;41.606;-87.602;2023-07-31T09:23:10;99901.34;;;21.04;88.39
49342;BME280;35210;41.606;-87.602;2023-07-31T09:25:39;99916.44;;;21.05;88.43
49342;BME280;35210;41.606;-87.602;2023-07-31T09:28:09;99918.31;;;21.05;88.69
49342;BME280;35210;41.606;-87.602;2023-07-31T09:30:46;99924.50;;;21.05;88.88
49342;BME280;35210;41.606;-87.602;2023-07-31T09:33:15;99918.16;;;20.98;89.41
49342;BME280;35210;41.606;-87.602;2023-07-31T09:35:44;99906.56;;;20.97;90.07
49342;BME280;35210;41.606;-87.602;2023-07-31T09:38:14;99915.16;;;20.93;90.91
49342;BME280;35210;41.606;-87.602;2023-07-31T09:40:44;99920.19;;;20.88;91.53
49342;BME280;35210;41.606;-87.602;2023-07-31T09:43:13;99922.72;;;20.81;91.75
49342;BME280;35210;41.606;-87.602;2023-07-31T09:45:45;99931.00;;;20.80;91.86
49342;BME280;35210;41.606;-87.602;2023-07-31T09:48:15;99915.69;;;20.80;91.55
49342;BME280;35210;41.606;-87.602;2023-07-31T09:50:44;99912.38;;;20.78;91.30
49342;BME280;35210;41.606;-87.602;2023-07-31T09:53:15;99913.91;;;20.73;91.56
49342;BME280;35210;41.606;-87.602;2023-07-31T09:55:44;99916.41;;;20.74;91.61
49342;BME280;35210;41.606;-87.602;2023-07-31T09:58:13;99911.88;;;20.75;91.66
49342;BME280;35210;41.606;-87.602;2023-07-31T10:00:41;99917.06;;;20.76;91.63
49342;BME280;35210;41.606;-87.602;2023-07-31T10:03:10;99919.75;;;20.76;91.59
49342;BME280;35210;41.606;-87.602;2023-07-31T10:05:42;99905.31;;;20.77;91.31
49342;BME280;35210;41.606;-87.602;2023-07-31T10:08:16;99907.69;;;20.72;91.15
49342;BME280;35210;41.606;-87.602;2023-07-31T10:10:46;99912.72;;;20.67;91.15
49342;BME280;35210;41.606;-87.602;2023-07-31T10:13:14;99898.31;;;20.68;91.10
49342;BME280;35210;41.606;-87.602;2023-07-31T10:15:43;99901.34;;;20.65;91.16
49342;BME280;35210;41.606;-87.602;2023-07-31T10:18:12;99893.13;;;20.58;91.64
49342;BME280;35210;41.606;-87.602;2023-07-31T10:20:40;99884.94;;;20.52;92.24
49342;BME280;35210;41.606;-87.602;2023-07-31T10:23:09;99887.59;;;20.52;92.33
49342;BME280;35210;41.606;-87.602;2023-07-31T10:25:41;99886.94;;;20.50;92.32
49342;BME280;35210;41.606;-87.602;2023-07-31T10:28:10;99897.19;;;20.46;92.80
49342;BME280;35210;41.606;-87.602;2023-07-31T10:30:40;99895.50;;;20.45;92.70
49342;BME280;35210;41.606;-87.602;2023-07-31T10:33:09;99882.25;;;20.44;92.68
49342;BME280;35210;41.606;-87.602;2023-07-31T10:35:37;99886.28;;;20.40;92.78
49342;BME280;35210;41.606;-87.602;2023-07-31T10:38:11;99894.50;;;20.38;92.61
49342;BME280;35210;41.606;-87.602;2023-07-31T10:40:41;99895.66;;;20.35;92.69
49342;BME280;35210;41.606;-87.602;2023-07-31T10:43:24;99901.00;;;20.35;92.83
49342;BME280;35210;41.606;-87.602;2023-07-31T10:45:53;99893.97;;;20.34;92.85
49342;BME280;35210;41.606;-87.602;2023-07-31T10:48:22;99891.47;;;20.33;91.68
49342;BME280;35210;41.606;-87.602;2023-07-31T10:50:51;99887.94;;;20.32;91.81
49342;BME280;35210;41.606;-87.602;2023-07-31T10:53:23;99887.94;;;20.32;91.96
49342;BME280;35210;41.606;-87.602;2023-07-31T10:55:58;99903.69;;;20.35;91.55
49342;BME280;35210;41.606;-87.602;2023-07-31T10:58:26;99902.69;;;20.37;91.33
49342;BME280;35210;41.606;-87.602;2023-07-31T11:00:56;99915.09;;;20.38;91.00
49342;BME280;35210;41.606;-87.602;2023-07-31T11:03:26;99913.28;;;20.38;91.23
49342;BME280;35210;41.606;-87.602;2023-07-31T11:06:00;99914.25;;;20.37;91.48
49342;BME280;35210;41.606;-87.602;2023-07-31T11:08:30;99916.78;;;20.39;91.73
49342;BME280;35210;41.606;-87.602;2023-07-31T11:11:11;99916.78;;;20.39;92.01
49342;BME280;35210;41.606;-87.602;2023-07-31T11:13:46;99911.59;;;20.45;91.64
49342;BME280;35210;41.606;-87.602;2023-07-31T11:16:16;99913.94;;;20.40;91.88
49342;BME280;35210;41.606;-87.602;2023-07-31T11:18:46;99927.84;;;20.35;92.15
49342;BME280;35210;41.606;-87.602;2023-07-31T11:21:16;99918.09;;;20.34;92.36
49342;BME280;35210;41.606;-87.602;2023-07-31T11:23:48;99923.13;;;20.29;92.70
49342;BME280;35210;41.606;-87.602;2023-07-31T11:26:18;99927.66;;;20.29;92.82
49342;BME280;35210;41.606;-87.602;2023-07-31T11:28:47;99930.19;;;20.30;92.95
49342;BME280;35210;41.606;-87.602;2023-07-31T11:31:16;99919.44;;;20.30;92.73
49342;BME280;35210;41.606;-87.602;2023-07-31T11:33:44;99930.19;;;20.30;93.28
49342;BME280;35210;41.606;-87.602;2023-07-31T11:36:16;99933.88;;;20.29;94.01
49342;BME280;35210;41.606;-87.602;2023-07-31T11:38:45;99941.56;;;20.32;94.27
49342;BME280;35210;41.606;-87.602;2023-07-31T11:41:14;99943.41;;;20.32;94.71
49342;BME280;35210;41.606;-87.602;2023-07-31T11:43:45;99948.63;;;20.33;95.43
49342;BME280;35210;41.606;-87.602;2023-07-31T11:46:14;99964.38;;;20.37;95.43
49342;BME280;35210;41.606;-87.602;2023-07-31T11:48:42;99963.22;;;20.39;95.52
49342;BME280;35210;41.606;-87.602;2023-07-31T11:51:12;99971.78;;;20.43;95.53
49342;BME280;35210;41.606;-87.602;2023-07-31T11:53:44;99971.44;;;20.46;95.77
49342;BME280;35210;41.606;-87.602;2023-07-31T11:56:14;99964.06;;;20.48;95.75
49342;BME280;35210;41.606;-87.602;2023-07-31T11:58:46;99964.06;;;20.56;95.32
49342;BME280;35210;41.606;-87.602;2023-07-31T12:01:17;99958.19;;;20.60;94.80
49342;BME280;35210;41.606;-87.602;2023-07-31T12:03:47;99959.69;;;20.63;94.90
49342;BME280;35210;41.606;-87.602;2023-07-31T12:06:15;99946.94;;;20.65;94.40
49342;BME280;35210;41.606;-87.602;2023-07-31T12:08:43;99945.59;;;20.69;93.99
49342;BME280;35210;41.606;-87.602;2023-07-31T12:11:11;99946.09;;;20.73;93.92
49342;BME280;35210;41.606;-87.602;2023-07-31T12:13:39;99941.56;;;20.73;94.12
49342;BME280;35210;41.606;-87.602;2023-07-31T12:16:09;99960.00;;;20.76;94.04
49342;BME280;35210;41.606;-87.602;2023-07-31T12:18:37;99967.53;;;20.81;92.97
49342;BME280;35210;41.606;-87.602;2023-07-31T12:21:09;99969.03;;;20.83;91.66
49342;BME280;35210;41.606;-87.602;2023-07-31T12:23:37;99973.53;;;20.91;91.76
49342;BME280;35210;41.606;-87.602;2023-07-31T12:26:09;99983.09;;;21.02;91.31
49342;BME280;35210;41.606;-87.602;2023-07-31T12:28:40;99981.03;;;21.12;90.76
49342;BME280;35210;41.606;-87.602;2023-07-31T12:31:12;99969.13;;;21.22;89.83
49342;BME280;35210;41.606;-87.602;2023-07-31T12:33:41;99983.84;;;21.35;88.06
49342;BME280;35210;41.606;-87.602;2023-07-31T12:36:10;99970.22;;;21.44;86.80
49342;BME280;35210;41.606;-87.602;2023-07-31T12:38:39;99983.22;;;21.55;85.90
49342;BME280;35210;41.606;-87.602;2023-07-31T12:41:07;99986.53;;;21.65;85.44
49342;BME280;35210;41.606;-87.602;2023-07-31T12:43:36;99994.22;;;21.77;84.88
49342;BME280;35210;41.606;-87.602;2023-07-31T12:46:05;100001.88;;;21.88;83.55
49342;BME280;35210;41.606;-87.602;2023-07-31T12:48:36;100003.69;;;21.95;82.77
49342;BME280;35210;41.606;-87.602;2023-07-31T12:51:04;100008.88;;;22.05;81.76